sensor_id;sensor_type;location;lat;lon;timestamp;temperature;humidity
49503;DHT22;35409;48.776;9.204;2024-02-28T00:00:13;7.40;99.90
49503;DHT22;35409;48.776;9.204;2024-02-28T00:02:39;7.50;99.90
49503;DHT22;35409;48.776;9.204;2024-02-28T00:05:05;7.40;99.90
49503;DHT22;35409;48.776;9.204;2024-02-28T00:07:31;7.40;99.90
49503;DHT22;35409;48.776;9.204;2024-02-28T00:09:56;7.40;99.90
49503;DHT22;35409;48.776;9.204;2024-02-28T00:12:25;7.50;99.90
49503;DHT22;35409;48.776;9.204;2024-02-28T00:14:51;7.40;99.90
49503;DHT22;35409;48.776;9.204;2024-02-28T00:17:17;7.50;99.90
49503;DHT22;35409;48.776;9.204;2024-02-28T00:19:42;7.60;99.90
49503;DHT22;35409;48.776;9.204;2024-02-28T00:22:09;7.50;99.90
49503;DHT22;35409;48.776;9.204;2024-02-28T00:24:34;7.50;99.90
49503;DHT22;35409;48.776;9.204;2024-02-28T00:27:00;7.50;99.90
49503;DHT22;35409;48.776;9.204;2024-02-28T00:29:26;7.40;99.90
49503;DHT22;35409;48.776;9.204;2024-02-28T00:31:52;7.30;99.90
49503;DHT22;35409;48.776;9.204;2024-02-28T00:34:17;7.30;99.90
49503;DHT22;35409;48.776;9.204;2024-02-28T00:36:43;7.30;99.90
49503;DHT22;35409;48.776;9.204;2024-02-28T00:39:09;7.30;99.90
49503;DHT22;35409;48.776;9.204;2024-02-28T00:41:35;7.30;99.90
49503;DHT22;35409;48.776;9.204;2024-02-28T00:44:02;7.30;99.90
49503;DHT22;35409;48.776;9.204;2024-02-28T00:46:28;7.40;99.90
49503;DHT22;35409;48.776;9.204;2024-02-28T00:48:54;7.40;99.90
49503;DHT22;35409;48.776;9.204;2024-02-28T00:51:19;7.40;99.90
49503;DHT22;35409;48.776;9.204;2024-02-28T00:53:45;7.30;99.90
49503;DHT22;35409;48.776;9.204;2024-02-28T00:56:11;7.40;99.90
49503;DHT22;35409;48.776;9.204;2024-02-28T00:58:36;7.30;99.90
49503;DHT22;35409;48.776;9.204;2024-02-28T01:01:02;7.30;99.90
49503;DHT22;35409;48.776;9.204;2024-02-28T01:03:28;7.30;99.90
49503;DHT22;35409;48.776;9.204;2024-02-28T01:05:53;7.30;99.90
49503;DHT22;35409;48.776;9.204;2024-02-28T01:08:19;7.40;99.90
49503;DHT22;35409;48.776;9.204;2024-02-28T01:10:45;7.30;99.90
49503;DHT22;35409;48.776;9.204;2024-02-28T01:13:10;7.30;99.90
49503;DHT22;35409;48.776;9.204;2024-02-28T01:15:40;7.40;99.90
49503;DHT22;35409;48.776;9.204;2024-02-28T01:18:06;7.40;99.90
49503;DHT22;35409;48.776;9.204;2024-02-28T01:20:31;7.40;99.90
49503;DHT22;35409;48.776;9.204;2024-02-28T01:22:58;7.40;99.90
49503;DHT22;35409;48.776;9.204;2024-02-28T01:25:23;7.40;99.90
49503;DHT22;35409;48.776;9.204;2024-02-28T01:27:49;7.30;99.90
49503;DHT22;35409;48.776;9.204;2024-02-28T01:30:14;7.30;99.90
49503;DHT22;35409;48.776;9.204;2024-02-28T01:32:40;7.20;99.90
49503;DHT22;35409;48.776;9.204;2024-02-28T01:35:08;7.30;99.90
49503;DHT22;35409;48.776;9.204;2024-02-28T01:37:34;7.20;99.90
49503;DHT22;35409;48.776;9.204;2024-02-28T01:40:00;7.20;99.90
49503;DHT22;35409;48.776;9.204;2024-02-28T01:42:25;7.20;99.90
49503;DHT22;35409;48.776;9.204;2024-02-28T01:44:51;7.20;99.90
49503;DHT22;35409;48.776;9.204;2024-02-28T01:47:17;7.20;99.90
49503;DHT22;35409;48.776;9.204;2024-02-28T01:49:44;7.20;99.90
49503;DHT22;35409;48.776;9.204;2024-02-28T01:52:11;7.20;99.90
49503;DHT22;35409;48.776;9.204;2024-02-28T01:54:38;7.20;99.90
49503;DHT22;35409;48.776;9.204;2024-02-28T01:57:05;7.10;99.90
49503;DHT22;35409;48.776;9.204;2024-02-28T01:59:31;7.10;99.90
49503;DHT22;35409;48.776;9.204;2024-02-28T02:01:57;7.20;99.90
49503;DHT22;35409;48.776;9.204;2024-02-28T02:04:24;7.20;99.90
49503;DHT22;35409;48.776;9.204;2024-02-28T02:06:49;7.20;99.90
49503;DHT22;35409;48.776;9.204;2024-02-28T02:09:16;7.20;99.90
49503;DHT22;35409;48.776;9.204;2024-02-28T02:11:42;7.10;99.90
49503;DHT22;35409;48.776;9.204;2024-02-28T02:14:07;7.10;99.90
49503;DHT22;35409;48.776;9.204;2024-02-28T02:16:33;7.10;99.90
49503;DHT22;35409;48.776;9.204;2024-02-28T02:18:59;7.10;99.90
49503;DHT22;35409;48.776;9.204;2024-02-28T02:21:30;7.10;99.90
49503;DHT22;35409;48.776;9.204;2024-02-28T02:23:56;7.10;99.90
49503;DHT22;35409;48.776;9.204;2024-02-28T02:26:21;7.20;99.90
49503;DHT22;35409;48.776;9.204;2024-02-28T02:28:47;7.10;99.90
49503;DHT22;35409;48.776;9.204;2024-02-28T02:31:13;7.10;99.90
49503;DHT22;35409;48.776;9.204;2024-02-28T02:33:39;7.10;99.90
49503;DHT22;35409;48.776;9.204;2024-02-28T02:36:05;7.10;99.90
49503;DHT22;35409;48.776;9.204;2024-02-28T02:38:30;7.00;99.90
49503;DHT22;35409;48.776;9.204;2024-02-28T02:40:56;7.10;99.90
49503;DHT22;35409;48.776;9.204;2024-02-28T02:43:22;7.00;99.90
49503;DHT22;35409;48.776;9.204;2024-02-28T02:45:47;7.00;99.90
49503;DHT22;35409;48.776;9.204;2024-02-28T02:48:13;7.00;99.90
49503;DHT22;35409;48.776;9.204;2024-02-28T02:50:38;7.00;99.90
49503;DHT22;35409;48.776;9.204;2024-02-28T02:53:04;6.90;99.90
49503;DHT22;35409;48.776;9.204;2024-02-28T02:55:32;7.00;99.90
49503;DHT22;35409;48.776;9.204;2024-02-28T02:57:58;7.10;99.90
49503;DHT22;35409;48.776;9.204;2024-02-28T03:00:23;7.00;99.90
49503;DHT22;35409;48.776;9.204;2024-02-28T03:02:49;6.90;99.90
49503;DHT22;35409;48.776;9.204;2024-02-28T03:05:14;6.80;99.90
49503;DHT22;35409;48.776;9.204;2024-02-28T03:07:40;6.80;99.90
49503;DHT22;35409;48.776;9.204;2024-02-28T03:10:06;6.80;99.90
49503;DHT22;35409;48.776;9.204;2024-02-28T03:12:32;6.80;99.90
49503;DHT22;35409;48.776;9.204;2024-02-28T03:14:57;6.70;99.90
49503;DHT22;35409;48.776;9.204;2024-02-28T03:17:23;6.70;99.90
49503;DHT22;35409;48.776;9.204;2024-02-28T03:19:49;6.80;99.90
49503;DHT22;35409;48.776;9.204;2024-02-28T03:22:14;6.80;99.90
49503;DHT22;35409;48.776;9.204;2024-02-28T03:24:40;6.70;99.90
49503;DHT22;35409;48.776;9.204;2024-02-28T03:27:06;6.70;99.90
49503;DHT22;35409;48.776;9.204;2024-02-28T03:29:32;6.70;99.90
49503;DHT22;35409;48.776;9.204;2024-02-28T03:31:58;6.70;99.90
49503;DHT22;35409;48.776;9.204;2024-02-28T03:34:24;6.70;99.90
49503;DHT22;35409;48.776;9.204;2024-02-28T03:36:50;6.70;99.90
49503;DHT22;35409;48.776;9.204;2024-02-28T03:39:16;6.70;99.90
49503;DHT22;35409;48.776;9.204;2024-02-28T03:41:42;6.80;99.90
49503;DHT22;35409;48.776;9.204;2024-02-28T03:44:07;6.90;99.90
49503;DHT22;35409;48.776;9.204;2024-02-28T03:46:33;6.80;99.90
49503;DHT22;35409;48.776;9.204;2024-02-28T03:48:59;6.80;99.90
49503;DHT22;35409;48.776;9.204;2024-02-28T03:51:24;6.70;99.90
49503;DHT22;35409;48.776;9.204;2024-02-28T03:53:50;6.80;99.90
49503;DHT22;35409;48.776;9.204;2024-02-28T03:56:25;6.80;99.90
49503;DHT22;35409;48.776;9.204;2024-02-28T03:58:51;6.80;99.90
49503;DHT22;35409;48.776;9.204;2024-02-28T04:01:17;6.70;99.90
49503;DHT22;35409;48.776;9.204;2024-02-28T04:03:43;6.60;99.90
49503;DHT22;35409;48.776;9.204;2024-02-28T04:06:09;6.60;99.90
49503;DHT22;35409;48.776;9.204;2024-02-28T04:08:34;6.60;99.90
49503;DHT22;35409;48.776;9.204;2024-02-28T04:11:00;6.60;99.90
49503;DHT22;35409;48.776;9.204;2024-02-28T04:13:26;6.60;99.90
49503;DHT22;35409;48.776;9.204;2024-02-28T04:15:51;6.70;99.90
49503;DHT22;35409;48.776;9.204;2024-02-28T04:18:17;6.60;99.90
49503;DHT22;35409;48.776;9.204;2024-02-28T04:20:43;6.60;99.90
49503;DHT22;35409;48.776;9.204;2024-02-28T04:23:08;6.60;99.90
49503;DHT22;35409;48.776;9.204;2024-02-28T04:25:34;6.50;99.90
49503;DHT22;35409;48.776;9.204;2024-02-28T04:28:01;6.50;99.90
49503;DHT22;35409;48.776;9.204;2024-02-28T04:30:27;6.50;99.90
49503;DHT22;35409;48.776;9.204;2024-02-28T04:32:53;6.60;99.90
49503;DHT22;35409;48.776;9.204;2024-02-28T04:35:18;6.60;99.90
49503;DHT22;35409;48.776;9.204;2024-02-28T04:37:45;6.50;99.90
49503;DHT22;35409;48.776;9.204;2024-02-28T04:40:11;6.50;99.90
49503;DHT22;35409;48.776;9.204;2024-02-28T04:42:37;6.50;99.90
49503;DHT22;35409;48.776;9.204;2024-02-28T04:45:03;6.50;99.90
49503;DHT22;35409;48.776;9.204;2024-02-28T04:47:29;6.40;99.90
49503;DHT22;35409;48.776;9.204;2024-02-28T04:49:56;6.40;99.90
49503;DHT22;35409;48.776;9.204;2024-02-28T04:52:22;6.30;99.90
49503;DHT22;35409;48.776;9.204;2024-02-28T04:54:47;6.40;99.90
49503;DHT22;35409;48.776;9.204;2024-02-28T04:57:13;6.30;99.90
49503;DHT22;35409;48.776;9.204;2024-02-28T04:59:39;6.40;99.90
49503;DHT22;35409;48.776;9.204;2024-02-28T05:02:06;6.30;99.90
49503;DHT22;35409;48.776;9.204;2024-02-28T05:04:32;6.30;99.90
49503;DHT22;35409;48.776;9.204;2024-02-28T05:06:57;6.30;99.90
49503;DHT22;35409;48.776;9.204;2024-02-28T05:09:23;6.30;99.90
49503;DHT22;35409;48.776;9.204;2024-02-28T05:11:48;6.20;99.90
49503;DHT22;35409;48.776;9.204;2024-02-28T05:14:14;6.20;99.90
49503;DHT22;35409;48.776;9.204;2024-02-28T05:16:40;6.20;99.90
49503;DHT22;35409;48.776;9.204;2024-02-28T05:19:05;6.20;99.90
49503;DHT22;35409;48.776;9.204;2024-02-28T05:21:31;6.20;99.90
49503;DHT22;35409;48.776;9.204;2024-02-28T05:23:56;6.10;99.90
49503;DHT22;35409;48.776;9.204;2024-02-28T05:26:22;6.20;99.90
49503;DHT22;35409;48.776;9.204;2024-02-28T05:28:47;6.10;99.90
49503;DHT22;35409;48.776;9.204;2024-02-28T05:31:26;6.20;99.90
49503;DHT22;35409;48.776;9.204;2024-02-28T05:33:53;6.20;99.90
49503;DHT22;35409;48.776;9.204;2024-02-28T05:36:20;6.20;99.90
49503;DHT22;35409;48.776;9.204;2024-02-28T05:38:46;6.10;99.90
49503;DHT22;35409;48.776;9.204;2024-02-28T05:41:12;6.00;99.90
49503;DHT22;35409;48.776;9.204;2024-02-28T05:58:23;6.20;99.90
49503;DHT22;35409;48.776;9.204;2024-02-28T06:00:50;6.10;99.90
49503;DHT22;35409;48.776;9.204;2024-02-28T06:03:16;6.10;99.90
49503;DHT22;35409;48.776;9.204;2024-02-28T06:05:42;6.10;99.90
49503;DHT22;35409;48.776;9.204;2024-02-28T06:54:32;6.00;99.90
49503;DHT22;35409;48.776;9.204;2024-02-28T06:56:57;5.90;99.90
49503;DHT22;35409;48.776;9.204;2024-02-28T06:59:23;5.90;99.90
49503;DHT22;35409;48.776;9.204;2024-02-28T07:01:49;5.90;99.90
49503;DHT22;35409;48.776;9.204;2024-02-28T07:04:14;5.90;99.90
49503;DHT22;35409;48.776;9.204;2024-02-28T07:06:40;5.90;99.90
49503;DHT22;35409;48.776;9.204;2024-02-28T07:09:09;6.00;99.90
49503;DHT22;35409;48.776;9.204;2024-02-28T07:11:35;5.90;99.90
49503;DHT22;35409;48.776;9.204;2024-02-28T07:14:00;5.90;99.90
49503;DHT22;35409;48.776;9.204;2024-02-28T07:16:29;6.00;99.90
49503;DHT22;35409;48.776;9.204;2024-02-28T07:18:55;6.00;99.90
49503;DHT22;35409;48.776;9.204;2024-02-28T07:21:21;6.10;99.90
49503;DHT22;35409;48.776;9.204;2024-02-28T07:23:46;6.10;99.90
49503;DHT22;35409;48.776;9.204;2024-02-28T07:26:16;6.10;99.90
49503;DHT22;35409;48.776;9.204;2024-02-28T07:28:42;6.20;99.90
49503;DHT22;35409;48.776;9.204;2024-02-28T07:31:14;6.20;99.90
49503;DHT22;35409;48.776;9.204;2024-02-28T07:33:40;6.20;99.90
49503;DHT22;35409;48.776;9.204;2024-02-28T07:36:06;6.30;99.90
49503;DHT22;35409;48.776;9.204;2024-02-28T07:38:32;6.30;99.90
49503;DHT22;35409;48.776;9.204;2024-02-28T07:40:58;6.30;99.90
49503;DHT22;35409;48.776;9.204;2024-02-28T07:43:24;6.30;99.90
49503;DHT22;35409;48.776;9.204;2024-02-28T07:45:49;6.30;99.90
49503;DHT22;35409;48.776;9.204;2024-02-28T07:48:15;6.20;99.90
49503;DHT22;35409;48.776;9.204;2024-02-28T07:50:45;6.30;99.90
49503;DHT22;35409;48.776;9.204;2024-02-28T07:53:14;6.20;99.90
49503;DHT22;35409;48.776;9.204;2024-02-28T07:55:40;6.30;99.90
49503;DHT22;35409;48.776;9.204;2024-02-28T07:58:06;6.30;99.90
49503;DHT22;35409;48.776;9.204;2024-02-28T08:00:32;6.30;99.90
49503;DHT22;35409;48.776;9.204;2024-02-28T08:03:00;6.40;99.90
49503;DHT22;35409;48.776;9.204;2024-02-28T08:05:26;6.40;99.90
49503;DHT22;35409;48.776;9.204;2024-02-28T08:07:52;6.40;99.90
49503;DHT22;35409;48.776;9.204;2024-02-28T08:10:18;6.50;99.90
49503;DHT22;35409;48.776;9.204;2024-02-28T08:12:43;6.50;99.90
49503;DHT22;35409;48.776;9.204;2024-02-28T08:15:10;6.50;99.90
49503;DHT22;35409;48.776;9.204;2024-02-28T08:17:35;6.60;99.90
49503;DHT22;35409;48.776;9.204;2024-02-28T08:20:03;6.70;99.90
49503;DHT22;35409;48.776;9.204;2024-02-28T08:22:30;6.70;99.90
49503;DHT22;35409;48.776;9.204;2024-02-28T08:24:56;6.60;99.90
49503;DHT22;35409;48.776;9.204;2024-02-28T08:27:22;6.60;99.90
49503;DHT22;35409;48.776;9.204;2024-02-28T08:29:49;6.60;99.90
49503;DHT22;35409;48.776;9.204;2024-02-28T08:32:15;6.70;99.90
49503;DHT22;35409;48.776;9.204;2024-02-28T08:34:46;6.70;99.90
49503;DHT22;35409;48.776;9.204;2024-02-28T08:37:13;6.60;99.90
49503;DHT22;35409;48.776;9.204;2024-02-28T08:39:38;6.60;99.90
49503;DHT22;35409;48.776;9.204;2024-02-28T08:42:04;6.70;99.90
49503;DHT22;35409;48.776;9.204;2024-02-28T08:44:30;6.70;99.90
49503;DHT22;35409;48.776;9.204;2024-02-28T08:46:56;6.80;99.90
49503;DHT22;35409;48.776;9.204;2024-02-28T08:49:21;6.80;99.90
49503;DHT22;35409;48.776;9.204;2024-02-28T08:51:48;6.90;99.90
49503;DHT22;35409;48.776;9.204;2024-02-28T08:54:13;6.90;99.90
49503;DHT22;35409;48.776;9.204;2024-02-28T08:56:39;6.90;99.90
49503;DHT22;35409;48.776;9.204;2024-02-28T08:59:04;6.80;99.90
49503;DHT22;35409;48.776;9.204;2024-02-28T09:01:30;6.80;99.90
49503;DHT22;35409;48.776;9.204;2024-02-28T09:03:56;6.80;99.90
49503;DHT22;35409;48.776;9.204;2024-02-28T09:06:21;6.70;99.90
49503;DHT22;35409;48.776;9.204;2024-02-28T09:08:47;6.70;99.90
49503;DHT22;35409;48.776;9.204;2024-02-28T09:11:13;6.80;99.90
49503;DHT22;35409;48.776;9.204;2024-02-28T09:13:38;6.80;99.90
49503;DHT22;35409;48.776;9.204;2024-02-28T09:16:04;6.80;99.90
49503;DHT22;35409;48.776;9.204;2024-02-28T09:18:30;6.90;99.90
49503;DHT22;35409;48.776;9.204;2024-02-28T09:20:55;6.90;99.90
49503;DHT22;35409;48.776;9.204;2024-02-28T09:23:21;6.90;99.90
49503;DHT22;35409;48.776;9.204;2024-02-28T09:25:47;7.10;99.90
49503;DHT22;35409;48.776;9.204;2024-02-28T09:28:12;7.10;99.90
49503;DHT22;35409;48.776;9.204;2024-02-28T09:30:41;7.20;99.90
49503;DHT22;35409;48.776;9.204;2024-02-28T09:33:07;7.30;99.90
49503;DHT22;35409;48.776;9.204;2024-02-28T09:35:33;7.50;99.90
49503;DHT22;35409;48.776;9.204;2024-02-28T09:37:59;7.50;99.90
49503;DHT22;35409;48.776;9.204;2024-02-28T09:40:24;7.50;99.90
49503;DHT22;35409;48.776;9.204;2024-02-28T09:42:52;7.50;99.90
49503;DHT22;35409;48.776;9.204;2024-02-28T09:45:20;7.60;99.90
49503;DHT22;35409;48.776;9.204;2024-02-28T09:47:46;7.70;99.90
49503;DHT22;35409;48.776;9.204;2024-02-28T09:50:12;7.70;99.90
49503;DHT22;35409;48.776;9.204;2024-02-28T09:52:38;7.80;99.90
49503;DHT22;35409;48.776;9.204;2024-02-28T09:55:04;7.90;99.90
49503;DHT22;35409;48.776;9.204;2024-02-28T09:57:32;8.00;99.90
49503;DHT22;35409;48.776;9.204;2024-02-28T09:59:59;7.90;99.90
49503;DHT22;35409;48.776;9.204;2024-02-28T10:02:28;8.00;99.90
49503;DHT22;35409;48.776;9.204;2024-02-28T10:04:56;8.00;99.90
49503;DHT22;35409;48.776;9.204;2024-02-28T10:07:23;8.00;99.90
49503;DHT22;35409;48.776;9.204;2024-02-28T10:09:48;8.00;99.90
49503;DHT22;35409;48.776;9.204;2024-02-28T10:12:14;7.90;99.90
49503;DHT22;35409;48.776;9.204;2024-02-28T10:14:39;7.90;99.90
49503;DHT22;35409;48.776;9.204;2024-02-28T10:17:05;7.90;99.90
49503;DHT22;35409;48.776;9.204;2024-02-28T10:19:31;7.90;99.90
49503;DHT22;35409;48.776;9.204;2024-02-28T10:21:56;7.90;99.90
49503;DHT22;35409;48.776;9.204;2024-02-28T10:24:25;7.80;99.90
49503;DHT22;35409;48.776;9.204;2024-02-28T10:26:51;7.80;99.90
49503;DHT22;35409;48.776;9.204;2024-02-28T10:29:23;7.80;99.90
49503;DHT22;35409;48.776;9.204;2024-02-28T10:31:55;7.80;99.90
49503;DHT22;35409;48.776;9.204;2024-02-28T10:34:21;7.80;99.90
49503;DHT22;35409;48.776;9.204;2024-02-28T10:36:47;7.80;99.90
49503;DHT22;35409;48.776;9.204;2024-02-28T10:39:13;7.80;99.90
49503;DHT22;35409;48.776;9.204;2024-02-28T10:41:39;7.90;99.90
49503;DHT22;35409;48.776;9.204;2024-02-28T10:44:05;8.00;99.90
49503;DHT22;35409;48.776;9.204;2024-02-28T10:46:31;8.00;99.90
49503;DHT22;35409;48.776;9.204;2024-02-28T10:48:57;8.00;99.90
49503;DHT22;35409;48.776;9.204;2024-02-28T10:51:24;8.10;99.90
49503;DHT22;35409;48.776;9.204;2024-02-28T10:54:10;8.10;99.90
49503;DHT22;35409;48.776;9.204;2024-02-28T10:56:40;8.10;99.90
49503;DHT22;35409;48.776;9.204;2024-02-28T10:59:07;8.10;99.90
49503;DHT22;35409;48.776;9.204;2024-02-28T11:01:38;8.10;99.90
49503;DHT22;35409;48.776;9.204;2024-02-28T11:04:04;8.20;99.90
49503;DHT22;35409;48.776;9.204;2024-02-28T11:06:31;8.20;99.90
49503;DHT22;35409;48.776;9.204;2024-02-28T11:08:59;8.20;99.90
49503;DHT22;35409;48.776;9.204;2024-02-28T11:11:30;8.10;99.90
49503;DHT22;35409;48.776;9.204;2024-02-28T11:13:58;8.10;99.90
49503;DHT22;35409;48.776;9.204;2024-02-28T11:16:31;8.10;99.90
49503;DHT22;35409;48.776;9.204;2024-02-28T11:18:57;8.10;99.90
49503;DHT22;35409;48.776;9.204;2024-02-28T11:21:27;8.10;99.90
49503;DHT22;35409;48.776;9.204;2024-02-28T11:24:00;8.10;99.90
49503;DHT22;35409;48.776;9.204;2024-02-28T11:26:27;8.00;99.90
49503;DHT22;35409;48.776;9.204;2024-02-28T11:28:55;8.00;99.90
49503;DHT22;35409;48.776;9.204;2024-02-28T11:31:21;8.00;99.90
49503;DHT22;35409;48.776;9.204;2024-02-28T11:33:47;8.00;99.90
49503;DHT22;35409;48.776;9.204;2024-02-28T11:36:13;8.00;99.90
49503;DHT22;35409;48.776;9.204;2024-02-28T11:38:39;8.10;99.90
49503;DHT22;35409;48.776;9.204;2024-02-28T11:41:05;8.10;99.90
49503;DHT22;35409;48.776;9.204;2024-02-28T11:43:31;8.10;99.90
49503;DHT22;35409;48.776;9.204;2024-02-28T11:45:58;8.10;99.90
49503;DHT22;35409;48.776;9.204;2024-02-28T11:48:25;8.00;99.90
49503;DHT22;35409;48.776;9.204;2024-02-28T11:50:51;8.10;99.90
49503;DHT22;35409;48.776;9.204;2024-02-28T11:53:17;8.10;99.90
49503;DHT22;35409;48.776;9.204;2024-02-28T11:55:43;8.10;99.90
49503;DHT22;35409;48.776;9.204;2024-02-28T11:58:10;8.10;99.90
49503;DHT22;35409;48.776;9.204;2024-02-28T12:00:47;8.10;99.90
49503;DHT22;35409;48.776;9.204;2024-02-28T12:03:13;8.00;99.90
49503;DHT22;35409;48.776;9.204;2024-02-28T12:05:38;7.90;99.90
49503;DHT22;35409;48.776;9.204;2024-02-28T12:08:06;7.90;99.90
49503;DHT22;35409;48.776;9.204;2024-02-28T12:10:32;7.90;99.90
49503;DHT22;35409;48.776;9.204;2024-02-28T12:13:01;7.90;99.90
49503;DHT22;35409;48.776;9.204;2024-02-28T12:15:29;7.90;99.90
49503;DHT22;35409;48.776;9.204;2024-02-28T12:17:54;7.90;99.90
49503;DHT22;35409;48.776;9.204;2024-02-28T12:20:20;8.00;99.90
49503;DHT22;35409;48.776;9.204;2024-02-28T12:22:46;7.90;99.90
49503;DHT22;35409;48.776;9.204;2024-02-28T12:25:11;7.90;99.90
49503;DHT22;35409;48.776;9.204;2024-02-28T12:27:37;7.80;99.90
49503;DHT22;35409;48.776;9.204;2024-02-28T12:30:03;7.80;99.90
49503;DHT22;35409;48.776;9.204;2024-02-28T12:32:28;7.80;99.90
49503;DHT22;35409;48.776;9.204;2024-02-28T12:34:54;7.80;99.90
49503;DHT22;35409;48.776;9.204;2024-02-28T12:37:20;7.80;99.90
49503;DHT22;35409;48.776;9.204;2024-02-28T12:39:45;7.80;99.90
49503;DHT22;35409;48.776;9.204;2024-02-28T12:42:13;7.80;99.90
49503;DHT22;35409;48.776;9.204;2024-02-28T12:44:38;7.80;99.90
49503;DHT22;35409;48.776;9.204;2024-02-28T12:47:06;7.80;99.90
49503;DHT22;35409;48.776;9.204;2024-02-28T12:49:32;7.90;99.90
49503;DHT22;35409;48.776;9.204;2024-02-28T12:51:57;7.90;99.90
49503;DHT22;35409;48.776;9.204;2024-02-28T12:54:23;7.90;99.90
49503;DHT22;35409;48.776;9.204;2024-02-28T12:56:48;7.90;99.90
49503;DHT22;35409;48.776;9.204;2024-02-28T12:59:14;7.80;99.90
49503;DHT22;35409;48.776;9.204;2024-02-28T13:01:41;7.90;99.90
49503;DHT22;35409;48.776;9.204;2024-02-28T13:04:06;7.90;99.90
49503;DHT22;35409;48.776;9.204;2024-02-28T13:06:32;7.90;99.90
49503;DHT22;35409;48.776;9.204;2024-02-28T13:08:58;7.90;99.90
49503;DHT22;35409;48.776;9.204;2024-02-28T13:11:24;7.80;99.90
49503;DHT22;35409;48.776;9.204;2024-02-28T13:13:50;7.70;99.90
49503;DHT22;35409;48.776;9.204;2024-02-28T13:16:17;7.60;99.90
49503;DHT22;35409;48.776;9.204;2024-02-28T13:18:43;7.60;99.90
49503;DHT22;35409;48.776;9.204;2024-02-28T13:21:09;7.60;99.90
49503;DHT22;35409;48.776;9.204;2024-02-28T13:23:35;7.60;99.90
49503;DHT22;35409;48.776;9.204;2024-02-28T13:26:06;7.60;99.90
49503;DHT22;35409;48.776;9.204;2024-02-28T13:28:32;7.70;99.90
49503;DHT22;35409;48.776;9.204;2024-02-28T13:30:59;7.70;99.90
49503;DHT22;35409;48.776;9.204;2024-02-28T13:33:24;7.60;99.90
49503;DHT22;35409;48.776;9.204;2024-02-28T13:35:50;7.60;99.90
49503;DHT22;35409;48.776;9.204;2024-02-28T13:38:17;7.50;99.90
49503;DHT22;35409;48.776;9.204;2024-02-28T13:40:42;7.50;99.90
49503;DHT22;35409;48.776;9.204;2024-02-28T13:43:10;7.50;99.90
49503;DHT22;35409;48.776;9.204;2024-02-28T13:45:37;7.60;99.90
49503;DHT22;35409;48.776;9.204;2024-02-28T13:48:03;7.60;99.90
49503;DHT22;35409;48.776;9.204;2024-02-28T13:50:28;7.50;99.90
49503;DHT22;35409;48.776;9.204;2024-02-28T13:53:00;7.50;99.90
49503;DHT22;35409;48.776;9.204;2024-02-28T13:55:26;7.40;99.90
49503;DHT22;35409;48.776;9.204;2024-02-28T13:57:51;7.40;99.90
49503;DHT22;35409;48.776;9.204;2024-02-28T14:00:17;7.40;99.90
49503;DHT22;35409;48.776;9.204;2024-02-28T14:02:43;7.40;99.90
49503;DHT22;35409;48.776;9.204;2024-02-28T14:05:08;7.50;99.90
49503;DHT22;35409;48.776;9.204;2024-02-28T14:07:35;7.50;99.90
49503;DHT22;35409;48.776;9.204;2024-02-28T14:10:03;7.60;99.90
49503;DHT22;35409;48.776;9.204;2024-02-28T14:12:29;7.60;99.90
49503;DHT22;35409;48.776;9.204;2024-02-28T14:14:54;7.60;99.90
49503;DHT22;35409;48.776;9.204;2024-02-28T14:17:20;7.50;99.90
49503;DHT22;35409;48.776;9.204;2024-02-28T14:19:45;7.50;99.90
49503;DHT22;35409;48.776;9.204;2024-02-28T14:22:13;7.60;99.90
49503;DHT22;35409;48.776;9.204;2024-02-28T14:24:39;7.60;99.90
49503;DHT22;35409;48.776;9.204;2024-02-28T14:27:05;7.60;99.90
49503;DHT22;35409;48.776;9.204;2024-02-28T14:29:31;7.50;99.90
49503;DHT22;35409;48.776;9.204;2024-02-28T14:31:56;7.50;99.90
49503;DHT22;35409;48.776;9.204;2024-02-28T14:34:22;7.50;99.90
49503;DHT22;35409;48.776;9.204;2024-02-28T14:36:48;7.50;99.90
49503;DHT22;35409;48.776;9.204;2024-02-28T14:39:15;7.40;99.90
49503;DHT22;35409;48.776;9.204;2024-02-28T14:41:43;7.30;99.90
49503;DHT22;35409;48.776;9.204;2024-02-28T14:44:13;7.30;99.90
49503;DHT22;35409;48.776;9.204;2024-02-28T14:46:39;7.30;99.90
49503;DHT22;35409;48.776;9.204;2024-02-28T14:49:04;7.40;99.90
49503;DHT22;35409;48.776;9.204;2024-02-28T14:51:30;7.30;99.90
49503;DHT22;35409;48.776;9.204;2024-02-28T14:53:56;7.40;99.90
49503;DHT22;35409;48.776;9.204;2024-02-28T14:56:22;7.30;99.90
49503;DHT22;35409;48.776;9.204;2024-02-28T14:58:47;7.30;99.90
49503;DHT22;35409;48.776;9.204;2024-02-28T15:01:13;7.30;99.90
49503;DHT22;35409;48.776;9.204;2024-02-28T15:03:39;7.30;99.90
49503;DHT22;35409;48.776;9.204;2024-02-28T15:06:06;7.30;99.90
49503;DHT22;35409;48.776;9.204;2024-02-28T15:08:32;7.30;99.90
49503;DHT22;35409;48.776;9.204;2024-02-28T15:10:57;7.30;99.90
49503;DHT22;35409;48.776;9.204;2024-02-28T15:13:23;7.30;99.90
49503;DHT22;35409;48.776;9.204;2024-02-28T15:15:49;7.30;99.90
49503;DHT22;35409;48.776;9.204;2024-02-28T15:18:14;7.30;99.90
49503;DHT22;35409;48.776;9.204;2024-02-28T15:20:40;7.20;99.90
49503;DHT22;35409;48.776;9.204;2024-02-28T15:23:06;7.20;99.90
49503;DHT22;35409;48.776;9.204;2024-02-28T15:25:32;7.20;99.90
49503;DHT22;35409;48.776;9.204;2024-02-28T15:27:57;7.10;99.90
49503;DHT22;35409;48.776;9.204;2024-02-28T15:30:23;7.10;99.90
49503;DHT22;35409;48.776;9.204;2024-02-28T15:32:49;7.10;99.90
49503;DHT22;35409;48.776;9.204;2024-02-28T15:35:14;7.10;99.90
49503;DHT22;35409;48.776;9.204;2024-02-28T15:37:40;7.00;99.90
49503;DHT22;35409;48.776;9.204;2024-02-28T15:40:07;7.10;99.90
49503;DHT22;35409;48.776;9.204;2024-02-28T15:42:33;7.10;99.90
49503;DHT22;35409;48.776;9.204;2024-02-28T15:44:59;7.00;99.90
49503;DHT22;35409;48.776;9.204;2024-02-28T15:47:25;7.00;99.90
49503;DHT22;35409;48.776;9.204;2024-02-28T15:49:51;7.00;99.90
49503;DHT22;35409;48.776;9.204;2024-02-28T15:52:17;6.90;99.90
49503;DHT22;35409;48.776;9.204;2024-02-28T15:54:43;6.90;99.90
49503;DHT22;35409;48.776;9.204;2024-02-28T15:57:09;6.90;99.90
49503;DHT22;35409;48.776;9.204;2024-02-28T15:59:36;6.90;99.90
49503;DHT22;35409;48.776;9.204;2024-02-28T16:02:04;6.90;99.90
49503;DHT22;35409;48.776;9.204;2024-02-28T16:04:31;6.90;99.90
49503;DHT22;35409;48.776;9.204;2024-02-28T16:06:56;6.90;99.90
49503;DHT22;35409;48.776;9.204;2024-02-28T16:09:22;6.90;99.90
49503;DHT22;35409;48.776;9.204;2024-02-28T16:11:48;6.90;99.90
49503;DHT22;35409;48.776;9.204;2024-02-28T16:14:13;6.90;99.90
49503;DHT22;35409;48.776;9.204;2024-02-28T16:16:39;6.90;99.90
49503;DHT22;35409;48.776;9.204;2024-02-28T16:19:05;6.80;99.90
49503;DHT22;35409;48.776;9.204;2024-02-28T16:21:31;6.80;99.90
49503;DHT22;35409;48.776;9.204;2024-02-28T16:23:57;6.80;99.90
49503;DHT22;35409;48.776;9.204;2024-02-28T16:26:22;6.70;99.90
49503;DHT22;35409;48.776;9.204;2024-02-28T16:28:48;6.80;99.90
49503;DHT22;35409;48.776;9.204;2024-02-28T16:31:13;6.70;99.90
49503;DHT22;35409;48.776;9.204;2024-02-28T16:33:39;6.70;99.90
49503;DHT22;35409;48.776;9.204;2024-02-28T16:36:05;6.70;99.90
49503;DHT22;35409;48.776;9.204;2024-02-28T16:38:31;6.70;99.90